Time;durP1;ratioP1;P1;durP2;ratioP2;P2;SDS_P1;SDS_P2;PMS_P1;PMS_P2;Temp;Humidity;BMP_temperature;BMP_pressure;BME280_temperature;BME280_humidity;BME280_pressure;Samples;Min_cycle;Max_cycle;Signal;HPM_P1;HPM_P2
2022/10/18 00:01:33;;;;;;;36.03;11.43;;;17.00;92.10;;;;;;5054419;28;20032;-33
2022/10/18 00:03:59;;;;;;;37.88;11.82;;;17.00;92.10;;;;;;5054577;28;20027;-33
2022/10/18 00:06:24;;;;;;;35.10;11.23;;;17.00;92.10;;;;;;5054646;28;20056;-41
2022/10/18 00:08:50;;;;;;;42.45;11.70;;;17.00;92.10;;;;;;5053059;28;20021;-33
2022/10/18 00:11:15;;;;;;;34.78;11.95;;;17.00;92.10;;;;;;5054376;28;20025;-33
2022/10/18 00:13:42;;;;;;;21.00;11.30;;;17.00;92.10;;;;;;5054433;28;20056;-33
2022/10/18 00:16:11;;;;;;;26.02;10.50;;;17.00;92.10;;;;;;5054506;28;20064;-32
2022/10/18 00:18:37;;;;;;;16.15;11.07;;;17.00;92.10;;;;;;5054279;28;20048;-32
2022/10/18 00:21:08;;;;;;;20.02;12.25;;;17.00;92.10;;;;;;5054175;28;20346;-33
2022/10/18 00:23:34;;;;;;;19.45;11.27;;;17.00;92.10;;;;;;5054231;28;20021;-33
2022/10/18 00:26:13;;;;;;;23.40;12.60;;;17.00;92.10;;;;;;5054122;28;20017;-33
2022/10/18 00:28:39;;;;;;;19.40;11.65;;;17.00;92.10;;;;;;5054215;28;20025;-33
2022/10/18 00:31:17;;;;;;;21.65;11.68;;;17.00;92.10;;;;;;5054122;28;20025;-33
2022/10/18 00:33:44;;;;;;;21.77;11.43;;;17.00;92.10;;;;;;5053970;28;20380;-33
2022/10/18 00:36:11;;;;;;;15.02;10.95;;;17.00;92.10;;;;;;5054155;28;20029;-33
2022/10/18 00:38:37;;;;;;;20.73;11.82;;;17.00;92.10;;;;;;5053860;28;20032;-31
2022/10/18 00:41:05;;;;;;;15.80;11.55;;;17.00;92.10;;;;;;5054034;28;20051;-33
2022/10/18 00:43:30;;;;;;;28.25;12.05;;;17.10;92.10;;;;;;5053877;28;20021;-37
2022/10/18 00:45:56;;;;;;;15.93;12.07;;;17.00;92.10;;;;;;5053833;28;20475;-31
2022/10/18 00:48:21;;;;;;;26.20;11.40;;;17.00;92.10;;;;;;5053951;28;20393;-34
2022/10/18 00:50:49;;;;;;;20.85;11.55;;;17.00;92.10;;;;;;5054005;28;20056;-34
2022/10/18 00:53:19;;;;;;;31.70;12.07;;;17.00;92.10;;;;;;5053900;28;20334;-33
2022/10/18 00:55:45;;;;;;;20.30;11.95;;;17.00;92.00;;;;;;5053997;28;20067;-34
2022/10/18 00:58:12;;;;;;;36.45;12.27;;;17.00;92.00;;;;;;5053662;28;20021;-34
2022/10/18 01:00:39;;;;;;;33.13;11.10;;;17.00;92.10;;;;;;5053444;28;20079;-33
2022/10/18 01:03:05;;;;;;;35.97;12.40;;;17.00;92.00;;;;;;5053179;28;20044;-32
2022/10/18 01:05:32;;;;;;;25.10;11.73;;;17.00;92.00;;;;;;5053257;28;20021;-34
2022/10/18 01:08:12;;;;;;;24.30;13.05;;;17.00;92.00;;;;;;5053500;28;20082;-34
2022/10/18 01:11:03;;;;;;;31.08;11.20;;;17.00;92.00;;;;;;5053473;28;20053;-33
2022/10/18 01:13:34;;;;;;;19.75;12.57;;;17.00;92.00;;;;;;5053464;28;20021;-33
2022/10/18 01:16:16;;;;;;;22.83;12.02;;;17.00;92.00;;;;;;5053247;28;20032;-32
2022/10/18 01:18:53;;;;;;;18.58;12.57;;;17.00;92.10;;;;;;5053229;28;20029;-34
2022/10/18 01:21:50;;;;;;;26.13;12.75;;;17.00;92.10;;;;;;5052989;28;20055;-33
2022/10/18 01:24:44;;;;;;;25.75;13.23;;;16.90;92.00;;;;;;5052940;28;20531;-32
2022/10/18 01:27:33;;;;;;;23.17;12.52;;;16.90;92.10;;;;;;5052846;28;20091;-32
2022/10/18 01:30:30;;;;;;;21.33;12.27;;;16.90;92.10;;;;;;5051532;28;20025;-32
2022/10/18 01:33:04;;;;;;;20.00;12.13;;;16.90;92.10;;;;;;5052894;28;20052;-32
2022/10/18 01:35:33;;;;;;;20.40;12.52;;;16.90;92.10;;;;;;5051686;28;20020;-34
2022/10/18 01:38:04;;;;;;;22.42;12.75;;;16.90;92.10;;;;;;5053085;28;20136;-31
2022/10/18 01:40:30;;;;;;;28.83;13.13;;;16.90;92.10;;;;;;5053089;28;20104;-35
2022/10/18 01:42:56;;;;;;;19.27;12.73;;;16.90;92.10;;;;;;5052924;28;20071;-32
2022/10/18 01:45:24;;;;;;;22.05;12.32;;;16.90;92.10;;;;;;5053038;28;20052;-33
2022/10/18 01:47:51;;;;;;;27.25;12.43;;;16.90;92.10;;;;;;5052814;28;20032;-34
2022/10/18 01:50:31;;;;;;;26.88;12.88;;;16.90;92.10;;;;;;5052942;28;20062;-31
2022/10/18 01:52:57;;;;;;;27.73;11.85;;;16.90;92.10;;;;;;5052843;28;20029;-32
2022/10/18 01:55:47;;;;;;;17.02;12.80;;;16.90;92.10;;;;;;5052914;28;20025;-32
2022/10/18 01:58:31;;;;;;;16.85;13.02;;;16.90;92.10;;;;;;5052832;28;20025;-32
2022/10/18 02:01:07;;;;;;;20.17;12.45;;;16.90;92.10;;;;;;5052436;28;20029;-32
2022/10/18 02:03:36;;;;;;;19.90;13.60;;;16.80;92.10;;;;;;5052427;28;20017;-32
2022/10/18 02:06:26;;;;;;;19.35;14.18;;;16.80;92.10;;;;;;5052602;28;20017;-32
2022/10/18 02:09:11;;;;;;;19.65;13.85;;;16.80;92.10;;;;;;5052546;28;20541;-32
2022/10/18 02:11:41;;;;;;;19.50;14.07;;;16.80;92.10;;;;;;5052082;28;20112;-33
2022/10/18 02:14:10;;;;;;;17.27;13.60;;;16.80;92.10;;;;;;5052187;28;20063;-36
2022/10/18 02:16:55;;;;;;;19.35;14.10;;;16.70;92.10;;;;;;5051725;28;20029;-32
2022/10/18 02:19:34;;;;;;;23.42;14.82;;;16.70;92.10;;;;;;5052124;28;20025;-38
2022/10/18 02:22:00;;;;;;;20.13;14.82;;;16.70;92.10;;;;;;5052222;28;20021;-32
2022/10/18 02:24:40;;;;;;;19.75;14.48;;;16.70;92.10;;;;;;5052307;28;20021;-32
2022/10/18 02:27:07;;;;;;;20.23;14.45;;;16.70;92.10;;;;;;5052198;28;20029;-32
2022/10/18 02:29:33;;;;;;;18.48;13.25;;;16.70;92.10;;;;;;5052394;28;20029;-32
2022/10/18 02:32:09;;;;;;;20.27;14.10;;;16.70;92.10;;;;;;5052356;28;20025;-32
2022/10/18 02:34:41;;;;;;;17.95;13.05;;;16.60;92.10;;;;;;5052007;28;20053;-31
2022/10/18 02:37:09;;;;;;;18.33;13.60;;;16.60;92.10;;;;;;5052100;28;20103;-32
2022/10/18 02:39:44;;;;;;;19.23;13.73;;;16.60;92.10;;;;;;5052073;28;20110;-31
2022/10/18 02:42:10;;;;;;;17.48;13.20;;;16.50;92.10;;;;;;5052054;28;20088;-32
2022/10/18 02:44:37;;;;;;;19.45;14.13;;;16.50;92.20;;;;;;5051888;28;20021;-32
2022/10/18 02:47:05;;;;;;;19.67;13.20;;;16.50;92.10;;;;;;5052242;28;20032;-34
2022/10/18 02:49:30;;;;;;;18.25;12.98;;;16.50;92.20;;;;;;5051797;28;20052;-32
2022/10/18 02:51:56;;;;;;;18.75;13.23;;;16.50;92.20;;;;;;5051768;28;20076;-32
2022/10/18 02:54:22;;;;;;;19.83;12.98;;;16.50;92.20;;;;;;5051951;28;20040;-32
2022/10/18 02:56:48;;;;;;;17.83;13.38;;;16.50;92.20;;;;;;5051797;28;20025;-31
2022/10/18 02:59:13;;;;;;;17.13;12.85;;;16.50;92.10;;;;;;5051523;28;20520;-31
2022/10/18 03:01:39;;;;;;;19.17;12.90;;;16.50;92.10;;;;;;5051691;28;20495;-32
2022/10/18 03:04:05;;;;;;;18.20;12.68;;;16.40;92.10;;;;;;5050433;28;20481;-32
2022/10/18 03:06:31;;;;;;;16.33;12.32;;;16.40;92.10;;;;;;5051603;28;20107;-32
2022/10/18 03:08:57;;;;;;;19.35;12.93;;;16.40;92.10;;;;;;5051803;28;20472;-33
2022/10/18 03:11:23;;;;;;;18.38;12.65;;;16.30;92.10;;;;;;5051702;28;20021;-32
2022/10/18 03:13:51;;;;;;;16.02;11.90;;;16.30;92.10;;;;;;5051673;28;20025;-38
2022/10/18 03:16:17;;;;;;;18.25;12.15;;;16.30;92.10;;;;;;5051662;28;20041;-32
2022/10/18 03:18:43;;;;;;;14.52;11.70;;;16.30;92.10;;;;;;5051743;28;20029;-32
2022/10/18 03:21:08;;;;;;;16.02;12.32;;;16.30;92.10;;;;;;5051606;28;20460;-32
2022/10/18 03:23:34;;;;;;;15.35;11.57;;;16.30;92.10;;;;;;5051528;28;20029;-31
2022/10/18 03:26:01;;;;;;;18.35;12.30;;;16.30;92.10;;;;;;5051621;28;20021;-31
2022/10/18 03:28:26;;;;;;;16.17;12.20;;;16.30;92.10;;;;;;5054876;28;20021;-32
2022/10/18 03:30:52;;;;;;;19.02;12.05;;;16.20;92.10;;;;;;5055417;28;20024;-32
2022/10/18 03:33:18;;;;;;;13.75;12.13;;;16.30;92.10;;;;;;5055138;28;20136;-32
2022/10/18 03:35:43;;;;;;;14.88;11.88;;;16.20;92.10;;;;;;5055220;28;20020;-32
2022/10/18 03:38:09;;;;;;;17.83;11.68;;;16.20;92.10;;;;;;5055115;28;20029;-32
2022/10/18 03:40:35;;;;;;;15.82;12.05;;;16.20;92.10;;;;;;5055266;28;20432;-32
2022/10/18 03:43:00;;;;;;;16.10;11.70;;;16.20;92.10;;;;;;5054953;28;20079;-32
2022/10/18 03:45:26;;;;;;;18.52;11.52;;;16.20;92.10;;;;;;5055117;28;20039;-31
2022/10/18 03:47:51;;;;;;;15.98;11.98;;;16.20;92.10;;;;;;5055133;28;20419;-34
2022/10/18 03:50:17;;;;;;;15.38;12.00;;;16.20;92.10;;;;;;5054957;28;20068;-32
2022/10/18 03:52:43;;;;;;;13.32;11.35;;;16.20;92.10;;;;;;5054854;28;20032;-38
2022/10/18 03:55:08;;;;;;;16.45;12.23;;;16.10;92.10;;;;;;5053481;28;20021;-32
2022/10/18 03:57:34;;;;;;;15.80;11.90;;;16.10;92.10;;;;;;5055224;28;20025;-32
2022/10/18 03:59:59;;;;;;;14.77;11.23;;;16.10;92.10;;;;;;5054598;28;20048;-31
2022/10/18 04:02:25;;;;;;;15.52;11.50;;;16.10;92.10;;;;;;5054489;28;20032;-32
2022/10/18 04:04:51;;;;;;;16.67;11.25;;;16.10;92.10;;;;;;5054655;28;20033;-32
2022/10/18 04:07:17;;;;;;;15.60;11.23;;;16.00;92.00;;;;;;5054403;28;20059;-32
2022/10/18 04:09:43;;;;;;;13.77;11.57;;;16.00;92.00;;;;;;5054531;28;20025;-32
2022/10/18 04:12:08;;;;;;;14.45;9.57;;;16.00;92.00;;;;;;5054348;28;20492;-32
2022/10/18 04:14:34;;;;;;;15.07;11.23;;;16.10;92.10;;;;;;5054593;28;20032;-32
2022/10/18 04:17:00;;;;;;;14.10;10.80;;;16.00;92.00;;;;;;5054628;28;20048;-31
2022/10/18 04:19:26;;;;;;;14.45;10.77;;;16.00;92.00;;;;;;5054512;28;20056;-31
2022/10/18 04:21:52;;;;;;;15.77;10.93;;;16.00;92.00;;;;;;5054339;28;20021;-32
2022/10/18 04:24:18;;;;;;;13.73;10.95;;;16.00;92.00;;;;;;5054493;28;20025;-31
2022/10/18 04:26:43;;;;;;;14.52;10.50;;;16.00;92.00;;;;;;5054410;28;20024;-32
2022/10/18 04:29:09;;;;;;;15.35;12.10;;;15.90;91.90;;;;;;5054205;28;20021;-32
2022/10/18 04:31:35;;;;;;;16.65;11.70;;;16.00;92.00;;;;;;5053967;28;20033;-39
2022/10/18 04:34:03;;;;;;;14.07;11.60;;;15.90;92.00;;;;;;5053950;28;20013;-32
2022/10/18 04:36:29;;;;;;;13.93;10.13;;;15.80;92.00;;;;;;5053925;28;20441;-32
2022/10/18 04:38:54;;;;;;;14.38;9.55;;;15.80;92.00;;;;;;5053260;28;20079;-32
2022/10/18 04:41:20;;;;;;;15.35;10.60;;;15.80;92.10;;;;;;5053994;28;20036;-31
2022/10/18 04:43:46;;;;;;;17.02;10.77;;;15.80;92.00;;;;;;5053905;28;20032;-30
2022/10/18 04:46:11;;;;;;;12.98;9.63;;;15.80;92.10;;;;;;5053905;28;20092;-36
2022/10/18 04:48:37;;;;;;;12.55;9.82;;;15.70;92.00;;;;;;5054136;28;20025;-32
2022/10/18 04:51:02;;;;;;;14.45;11.02;;;15.70;92.00;;;;;;5053922;28;20028;-33
2022/10/18 04:53:28;;;;;;;15.40;12.13;;;15.70;92.00;;;;;;5053612;28;20079;-32
2022/10/18 04:55:53;;;;;;;12.27;10.52;;;15.60;92.00;;;;;;5053787;28;20404;-32
2022/10/18 04:58:19;;;;;;;15.02;10.38;;;15.60;92.10;;;;;;5053877;28;20076;-32
2022/10/18 05:00:46;;;;;;;13.40;10.15;;;15.60;92.10;;;;;;5053930;28;20131;-32
2022/10/18 05:03:13;;;;;;;13.30;10.40;;;15.60;92.10;;;;;;5053530;28;20032;-34
2022/10/18 05:05:39;;;;;;;18.35;11.75;;;15.60;92.10;;;;;;5053435;28;20391;-31
2022/10/18 05:08:04;;;;;;;14.15;10.65;;;15.50;92.10;;;;;;5053366;28;20096;-38
2022/10/18 05:10:30;;;;;;;14.63;10.50;;;15.50;92.10;;;;;;5053297;28;20021;-31
2022/10/18 05:12:56;;;;;;;15.48;10.32;;;15.60;92.10;;;;;;5051837;28;20025;-32
2022/10/18 05:15:21;;;;;;;13.68;10.70;;;15.60;92.20;;;;;;5051890;28;20075;-32
2022/10/18 05:17:47;;;;;;;15.68;11.07;;;15.60;92.20;;;;;;5053364;28;20503;-32
2022/10/18 05:20:13;;;;;;;12.35;9.60;;;15.60;92.20;;;;;;5053261;28;20034;-32
2022/10/18 05:22:38;;;;;;;15.30;10.35;;;15.50;92.10;;;;;;5053119;28;20040;-33
2022/10/18 05:25:04;;;;;;;13.38;10.70;;;15.50;92.10;;;;;;5053090;28;20104;-33
2022/10/18 05:27:30;;;;;;;14.13;9.45;;;15.50;92.20;;;;;;5053001;28;20099;-33
2022/10/18 05:29:55;;;;;;;15.68;10.85;;;15.50;92.20;;;;;;5053079;28;20029;-33
2022/10/18 05:32:21;;;;;;;16.90;10.50;;;15.50;92.20;;;;;;5052981;28;20035;-32
2022/10/18 05:34:46;;;;;;;15.73;10.15;;;15.50;92.20;;;;;;5053045;28;20029;-32
2022/10/18 05:37:12;;;;;;;13.43;9.73;;;15.50;92.20;;;;;;5052915;28;20090;-33
2022/10/18 05:39:38;;;;;;;24.98;10.23;;;15.50;92.20;;;;;;5052932;28;20026;-33
2022/10/18 05:42:04;;;;;;;23.02;10.13;;;15.50;92.10;;;;;;5052745;28;20032;-37
2022/10/18 05:44:31;;;;;;;23.38;10.30;;;15.50;92.10;;;;;;5052774;28;20016;-33
2022/10/18 05:46:56;;;;;;;28.75;9.68;;;15.50;92.10;;;;;;5052775;28;20082;-33
2022/10/18 05:49:22;;;;;;;21.13;10.18;;;15.50;92.10;;;;;;5052471;28;20025;-33
2022/10/18 05:51:48;;;;;;;24.25;9.70;;;15.50;92.10;;;;;;5052551;28;20029;-33
2022/10/18 05:54:14;;;;;;;25.98;10.00;;;15.50;92.10;;;;;;5052360;28;20032;-33
2022/10/18 05:56:40;;;;;;;34.47;8.93;;;15.50;92.10;;;;;;5052355;28;20020;-32
2022/10/18 05:59:09;;;;;;;35.30;8.75;;;15.50;92.10;;;;;;5052175;28;20086;-33
2022/10/18 06:01:35;;;;;;;31.17;7.78;;;15.40;92.00;;;;;;5052120;28;20028;-35
2022/10/18 06:04:01;;;;;;;20.40;7.70;;;15.40;92.00;;;;;;5052406;28;20434;-32
2022/10/18 06:06:26;;;;;;;16.95;7.15;;;15.50;92.00;;;;;;5052225;28;20096;-33
2022/10/18 06:08:52;;;;;;;14.77;6.50;;;15.40;91.90;;;;;;5052233;28;20495;-33
2022/10/18 06:11:20;;;;;;;14.63;6.10;;;15.40;92.00;;;;;;5052306;28;20032;-33
2022/10/18 06:13:48;;;;;;;11.80;6.10;;;15.40;92.00;;;;;;5052230;28;20511;-33
2022/10/18 06:16:15;;;;;;;16.73;5.75;;;15.40;92.00;;;;;;5052362;28;20044;-33
2022/10/18 06:18:41;;;;;;;14.63;5.43;;;15.40;92.00;;;;;;5052144;28;20032;-32
2022/10/18 06:21:07;;;;;;;11.43;5.43;;;15.30;92.20;;;;;;5052216;28;20029;-33
2022/10/18 06:23:34;;;;;;;19.05;4.88;;;15.30;91.90;;;;;;5050588;28;20013;-33
2022/10/18 06:26:01;;;;;;;14.35;5.03;;;15.30;91.90;;;;;;5051919;28;20017;-32
2022/10/18 06:28:28;;;;;;;10.57;5.60;;;15.20;91.90;;;;;;5051900;28;20025;-32
2022/10/18 06:30:54;;;;;;;12.80;5.80;;;15.20;92.00;;;;;;5051955;28;20021;-33
2022/10/18 06:33:20;;;;;;;18.02;5.70;;;15.10;92.00;;;;;;5051738;28;20372;-34
2022/10/18 06:36:00;;;;;;;12.45;5.30;;;15.20;92.00;;;;;;5051811;28;20028;-33
2022/10/18 06:38:27;;;;;;;20.50;5.43;;;15.10;91.90;;;;;;5052104;28;20033;-34
2022/10/18 06:40:54;;;;;;;23.58;6.00;;;15.10;91.90;;;;;;5051767;28;20087;-33
2022/10/18 06:43:20;;;;;;;23.85;6.22;;;15.00;91.90;;;;;;5051529;28;20025;-32
2022/10/18 06:45:45;;;;;;;16.90;5.93;;;15.00;91.90;;;;;;5051962;28;20028;-31
2022/10/18 06:48:11;;;;;;;10.90;6.20;;;14.90;91.90;;;;;;5051654;28;20023;-31
2022/10/18 06:50:37;;;;;;;16.98;5.55;;;14.90;91.90;;;;;;5051619;28;20052;-31
2022/10/18 06:53:05;;;;;;;11.05;6.47;;;14.90;92.00;;;;;;5051689;28;20021;-31
2022/10/18 06:55:30;;;;;;;7.82;5.32;;;14.80;92.00;;;;;;5051731;28;20055;-31
2022/10/18 06:57:56;;;;;;;12.48;6.25;;;14.80;92.00;;;;;;5050503;28;20061;-31
2022/10/18 07:00:22;;;;;;;10.38;6.68;;;14.70;91.90;;;;;;5051542;28;20085;-31
2022/10/18 07:02:48;;;;;;;13.00;6.78;;;14.70;92.00;;;;;;5054302;28;20064;-31
2022/10/18 07:05:13;;;;;;;8.98;6.32;;;14.60;92.30;;;;;;5055665;28;20025;-31
2022/10/18 07:07:39;;;;;;;9.63;6.53;;;14.60;92.10;;;;;;5055661;28;20025;-31
2022/10/18 07:10:05;;;;;;;10.88;6.57;;;14.60;92.10;;;;;;5055452;28;20036;-31
2022/10/18 07:12:31;;;;;;;13.10;7.10;;;14.60;92.10;;;;;;5055227;28;20029;-31
2022/10/18 07:14:57;;;;;;;9.02;7.05;;;14.60;92.10;;;;;;5055320;28;20028;-31
2022/10/18 07:17:22;;;;;;;7.30;6.15;;;14.60;92.10;;;;;;5055160;28;20333;-31
2022/10/18 07:19:48;;;;;;;10.40;7.13;;;14.50;92.10;;;;;;5055067;28;20100;-31
2022/10/18 07:22:13;;;;;;;9.57;6.22;;;14.50;92.10;;;;;;5055204;28;20079;-31
2022/10/18 07:24:39;;;;;;;8.55;6.57;;;14.50;92.10;;;;;;5054948;28;20019;-31
2022/10/18 07:27:05;;;;;;;13.20;6.53;;;14.60;92.10;;;;;;5053688;28;20021;-31
2022/10/18 07:29:32;;;;;;;11.82;6.90;;;14.60;92.10;;;;;;5054838;28;20017;-31
2022/10/18 07:31:58;;;;;;;11.38;6.78;;;14.50;92.00;;;;;;5054617;28;20063;-31
2022/10/18 07:34:23;;;;;;;10.73;6.43;;;14.50;92.00;;;;;;5054741;28;20032;-31
2022/10/18 07:36:49;;;;;;;11.82;6.55;;;14.50;92.00;;;;;;5054938;28;20025;-30
2022/10/18 07:39:15;;;;;;;8.23;5.65;;;14.50;92.00;;;;;;5053573;28;20052;-31
2022/10/18 07:41:40;;;;;;;9.52;6.00;;;14.50;92.00;;;;;;5054661;28;20025;-31
2022/10/18 07:44:06;;;;;;;9.77;6.05;;;14.40;92.00;;;;;;5054827;28;20036;-35
2022/10/18 07:46:32;;;;;;;10.90;6.13;;;14.40;92.00;;;;;;5054718;28;20378;-31
2022/10/18 07:48:58;;;;;;;8.50;5.90;;;14.50;92.00;;;;;;5054627;28;20104;-31
2022/10/18 07:51:24;;;;;;;9.23;5.97;;;14.40;92.00;;;;;;5054748;28;20354;-32
2022/10/18 07:53:50;;;;;;;9.68;5.90;;;14.40;92.00;;;;;;5053091;28;20087;-30
2022/10/18 07:56:19;;;;;;;7.85;5.78;;;14.50;92.10;;;;;;5054772;28;20057;-34
2022/10/18 07:58:47;;;;;;;8.95;5.47;;;14.50;92.10;;;;;;5054485;28;20044;-34
2022/10/18 08:01:14;;;;;;;8.40;5.70;;;14.50;92.00;;;;;;5054681;28;20495;-32
2022/10/18 08:03:40;;;;;;;10.35;5.72;;;14.50;92.00;;;;;;5054783;28;20067;-33
2022/10/18 08:06:08;;;;;;;8.45;5.00;;;14.60;92.00;;;;;;5054564;28;20083;-32
2022/10/18 08:08:34;;;;;;;7.85;5.35;;;14.60;91.90;;;;;;5054488;28;20491;-32
2022/10/18 08:11:07;;;;;;;12.55;6.22;;;14.60;91.90;;;;;;5054617;28;20377;-33
2022/10/18 08:13:33;;;;;;;7.57;5.68;;;14.60;91.90;;;;;;5053123;28;20025;-33
2022/10/18 08:16:00;;;;;;;10.05;5.80;;;14.70;91.90;;;;;;5054402;28;20414;-33
2022/10/18 08:18:26;;;;;;;7.68;5.43;;;14.80;91.90;;;;;;5054217;28;20021;-34
2022/10/18 08:20:51;;;;;;;7.70;5.15;;;14.80;91.90;;;;;;5054239;28;20479;-32
2022/10/18 08:23:17;;;;;;;8.35;4.80;;;14.90;91.90;;;;;;5054198;28;20029;-32
2022/10/18 08:25:42;;;;;;;7.78;4.60;;;14.90;91.80;;;;;;5054152;28;20017;-33
2022/10/18 08:28:08;;;;;;;8.88;4.82;;;15.00;91.80;;;;;;5053859;28;20025;-32
2022/10/18 08:30:34;;;;;;;7.43;4.55;;;15.00;91.80;;;;;;5053870;28;20051;-33
2022/10/18 08:33:00;;;;;;;8.02;4.80;;;15.10;91.70;;;;;;5053873;28;20032;-33
2022/10/18 08:35:26;;;;;;;8.80;4.47;;;15.20;91.70;;;;;;5053857;28;20384;-34
2022/10/18 08:37:51;;;;;;;7.43;3.80;;;15.20;91.60;;;;;;5053868;28;20033;-32
2022/10/18 08:40:17;;;;;;;6.32;4.05;;;15.30;91.80;;;;;;5054017;28;20384;-33
2022/10/18 08:43:11;;;;;;;6.50;3.65;;;15.30;91.50;;;;;;5053963;28;20103;-35
2022/10/18 08:45:40;;;;;;;;;;;15.30;91.40;;;;;;5051389;28;20030;-34
2022/10/18 08:48:13;;;;;;;7.05;3.80;;;15.40;91.40;;;;;;5053758;28;19928;-35
2022/10/18 08:50:40;;;;;;;5.88;2.90;;;15.40;91.30;;;;;;5053908;28;20035;-34
2022/10/18 08:53:15;;;;;;;7.57;3.58;;;15.40;91.20;;;;;;5053537;28;20028;-35
2022/10/18 08:55:52;;;;;;;4.00;2.95;;;15.40;91.20;;;;;;5053503;28;20032;-44
2022/10/18 08:58:25;;;;;;;6.28;3.15;;;15.40;91.10;;;;;;5053211;28;20028;-44
2022/10/18 09:01:39;;;;;;;6.80;3.08;;;15.50;91.10;;;;;;5053391;28;20036;-39
2022/10/18 09:04:17;;;;;;;6.90;2.78;;;15.50;90.90;;;;;;5033611;28;20389;-35
2022/10/18 09:07:20;;;;;;;5.18;2.63;;;15.50;90.80;;;;;;5053296;28;20487;-32
2022/10/18 09:09:51;;;;;;;9.23;2.60;;;15.60;90.80;;;;;;5053147;28;20035;-33
2022/10/18 09:12:33;;;;;;;5.28;2.47;;;15.60;90.70;;;;;;5053086;28;20029;-34
2022/10/18 09:15:12;;;;;;;4.78;2.08;;;15.60;90.70;;;;;;5053084;28;20028;-37
2022/10/18 09:17:38;;;;;;;7.63;2.28;;;15.70;90.70;;;;;;5052886;28;20021;-35
2022/10/18 09:20:15;;;;;;;10.43;2.80;;;15.70;90.60;;;;;;5053141;28;20147;-36
2022/10/18 09:22:57;;;;;;;6.72;2.30;;;15.80;90.60;;;;;;5052925;28;20056;-33
2022/10/18 09:25:44;;;;;;;4.55;1.77;;;15.80;90.50;;;;;;5052650;28;20461;-32
2022/10/18 09:28:14;;;;;;;5.97;1.95;;;15.90;90.40;;;;;;5052904;28;20036;-33
2022/10/18 09:31:06;;;;;;;6.10;1.90;;;15.90;90.40;;;;;;5052948;28;20028;-32
2022/10/18 09:34:07;;;;;;;7.22;1.90;;;15.90;90.30;;;;;;5052385;28;20055;-33
2022/10/18 09:36:36;;;;;;;4.90;1.80;;;16.00;90.30;;;;;;5052633;28;20036;-33
2022/10/18 09:39:10;;;;;;;4.22;1.80;;;16.00;90.20;;;;;;5052646;28;20025;-33
2022/10/18 09:41:49;;;;;;;2.95;1.65;;;16.00;90.10;;;;;;5052588;28;20052;-33
2022/10/18 09:44:24;;;;;;;4.30;1.70;;;16.00;90.00;;;;;;5052506;28;20040;-33
2022/10/18 09:47:04;;;;;;;4.20;1.55;;;16.10;89.90;;;;;;5052511;28;20025;-33
2022/10/18 09:49:40;;;;;;;2.60;1.30;;;16.10;89.80;;;;;;5052625;28;20021;-33
2022/10/18 09:52:15;;;;;;;8.63;1.40;;;16.20;89.70;;;;;;5052534;28;20033;-34
2022/10/18 09:54:46;;;;;;;4.65;1.75;;;16.20;89.30;;;;;;5052593;28;20575;-33
2022/10/18 09:57:22;;;;;;;2.53;1.17;;;16.30;89.10;;;;;;5052452;28;20645;-33
2022/10/18 09:59:50;;;;;;;5.32;1.33;;;16.30;88.70;;;;;;5052340;28;20067;-34
2022/10/18 10:02:21;;;;;;;6.43;1.48;;;16.30;88.30;;;;;;5052188;28;20032;-33
2022/10/18 10:04:48;;;;;;;5.35;0.95;;;16.30;88.00;;;;;;5050865;28;20095;-24
2022/10/18 10:07:18;;;;;;;6.28;1.50;;;16.40;87.70;;;;;;5051973;28;20449;-29
2022/10/18 10:10:02;;;;;;;5.63;1.33;;;16.50;87.40;;;;;;5052018;28;20110;-27
2022/10/18 10:12:37;;;;;;;4.25;1.30;;;16.50;87.10;;;;;;5051954;28;20676;-28
2022/10/18 10:15:24;;;;;;;5.05;0.95;;;16.50;86.60;;;;;;5051733;28;20025;-30
2022/10/18 10:18:02;;;;;;;4.80;1.73;;;16.60;86.10;;;;;;5051856;28;20025;-26
2022/10/18 10:20:42;;;;;;;3.40;1.20;;;16.60;85.30;;;;;;5051804;28;20035;-28
2022/10/18 10:23:13;;;;;;;4.07;1.10;;;16.70;84.90;;;;;;5051905;28;20036;-25
2022/10/18 10:25:41;;;;;;;3.65;1.40;;;16.80;84.70;;;;;;5051639;28;20036;-24
2022/10/18 10:28:13;;;;;;;3.22;1.17;;;16.80;84.50;;;;;;5051745;28;20025;-25
2022/10/18 10:30:39;;;;;;;4.13;1.13;;;16.90;83.80;;;;;;5051894;28;20126;-26
2022/10/18 10:33:05;;;;;;;5.05;1.05;;;16.90;83.70;;;;;;5051587;28;20134;-27
2022/10/18 10:35:40;;;;;;;4.75;1.20;;;16.90;83.60;;;;;;5051557;28;20083;-27
2022/10/18 10:38:06;;;;;;;5.63;1.35;;;17.00;83.10;;;;;;5050987;28;20471;-30
2022/10/18 10:40:48;;;;;;;3.20;0.88;;;17.00;82.50;;;;;;5051484;28;20025;-29
2022/10/18 10:43:21;;;;;;;4.07;0.90;;;17.10;82.40;;;;;;5051464;28;20032;-33
2022/10/18 10:46:00;;;;;;;3.33;1.05;;;17.10;81.70;;;;;;5051578;28;20024;-28
2022/10/18 10:48:29;;;;;;;4.53;1.75;;;17.10;81.90;;;;;;5051518;28;20024;-25
2022/10/18 10:51:07;;;;;;;4.10;1.08;;;17.20;82.00;;;;;;5051610;28;20048;-26
2022/10/18 10:53:41;;;;;;;3.88;0.98;;;17.20;81.70;;;;;;5051390;28;20120;-28
2022/10/18 10:56:48;;;;;;;4.60;1.05;;;17.30;81.40;;;;;;5050187;28;20078;-25
2022/10/18 10:59:17;;;;;;;3.75;1.15;;;17.30;81.00;;;;;;5048360;28;20052;-26
2022/10/18 11:01:44;;;;;;;3.90;0.90;;;17.30;79.50;;;;;;5051286;28;20132;-29
2022/10/18 11:04:29;;;;;;;5.80;1.13;;;17.30;79.80;;;;;;5051263;28;20044;-27
2022/10/18 11:07:21;;;;;;;2.88;0.80;;;17.40;79.60;;;;;;5051524;28;20030;-27
2022/10/18 11:09:57;;;;;;;4.53;1.05;;;17.40;79.40;;;;;;5051338;28;20483;-26
2022/10/18 11:12:28;;;;;;;2.17;1.08;;;17.40;79.10;;;;;;5051174;28;20056;-26
2022/10/18 11:15:10;;;;;;;5.15;1.20;;;17.40;77.90;;;;;;5051450;28;20029;-28
2022/10/18 11:18:09;;;;;;;3.20;0.98;;;17.40;78.20;;;;;;5051331;28;20571;-26
2022/10/18 11:20:43;;;;;;;4.07;1.00;;;17.50;77.90;;;;;;5051249;28;20075;-29
2022/10/18 11:23:15;;;;;;;4.22;1.00;;;17.50;77.90;;;;;;5051257;28;20033;-25
2022/10/18 11:26:06;;;;;;;5.50;1.50;;;17.60;78.10;;;;;;5051394;28;20025;-30
2022/10/18 11:28:50;;;;;;;4.00;1.60;;;17.60;77.60;;;;;;5051235;28;20050;-27
2022/10/18 11:31:40;;;;;;;4.03;0.90;;;17.70;76.80;;;;;;5051133;28;20350;-25
2022/10/18 11:34:27;;;;;;;4.90;0.85;;;17.60;76.00;;;;;;5051250;28;20037;-31
2022/10/18 11:37:02;;;;;;;2.47;0.73;;;17.70;76.20;;;;;;5051149;28;20025;-25
2022/10/18 11:40:05;;;;;;;2.20;0.85;;;17.70;75.50;;;;;;5051049;28;20118;-27
2022/10/18 11:42:45;;;;;;;3.38;0.80;;;17.70;75.00;;;;;;5051088;28;20128;-40
2022/10/18 11:45:22;;;;;;;2.08;0.80;;;17.70;74.90;;;;;;5051155;28;20476;-42
2022/10/18 11:48:01;;;;;;;3.10;0.90;;;17.70;74.50;;;;;;5052181;28;20362;-42
2022/10/18 11:50:57;;;;;;;2.97;1.10;;;17.70;74.30;;;;;;5054703;28;20024;-40
2022/10/18 11:53:40;;;;;;;4.03;0.90;;;17.80;73.60;;;;;;5054675;28;20033;-43
2022/10/18 11:56:14;;;;;;;2.72;1.00;;;17.80;73.50;;;;;;5054620;28;20025;-41
2022/10/18 11:58:42;;;;;;;2.55;0.93;;;17.80;73.50;;;;;;5052957;28;20116;-43
2022/10/18 12:01:31;;;;;;;2.85;0.93;;;17.80;73.60;;;;;;5054517;28;20042;-42
2022/10/18 12:04:16;;;;;;;3.38;0.98;;;17.90;73.40;;;;;;5054592;28;20078;-43
2022/10/18 12:06:44;;;;;;;2.88;0.88;;;17.90;73.40;;;;;;5054496;28;20025;-44
2022/10/18 12:09:15;;;;;;;3.38;0.93;;;18.00;73.50;;;;;;5054951;28;20029;-42
2022/10/18 12:11:54;;;;;;;5.03;1.20;;;18.00;72.70;;;;;;5053273;28;20120;-40
2022/10/18 12:14:35;;;;;;;5.55;1.17;;;18.00;72.10;;;;;;5054721;28;20032;-34
2022/10/18 12:17:14;;;;;;;4.40;1.15;;;18.00;71.20;;;;;;5054625;28;20158;-34
2022/10/18 12:19:41;;;;;;;3.47;1.05;;;18.00;71.00;;;;;;5054604;28;20108;-33
2022/10/18 12:22:33;;;;;;;4.38;1.00;;;18.10;71.20;;;;;;5054539;28;20029;-35
2022/10/18 12:25:00;;;;;;;2.72;0.90;;;18.20;70.90;;;;;;5044265;28;20045;-35
2022/10/18 12:27:57;;;;;;;7.88;1.30;;;18.20;70.70;;;;;;5054256;28;20109;-34
2022/10/18 12:30:44;;;;;;;4.07;1.10;;;18.20;70.30;;;;;;5054323;28;20514;-37
2022/10/18 12:33:22;;;;;;;2.35;1.10;;;18.20;70.40;;;;;;5054282;28;20104;-35
2022/10/18 12:35:56;;;;;;;4.18;1.20;;;18.20;70.20;;;;;;5054235;28;20029;-34
2022/10/18 12:38:29;;;;;;;3.78;1.20;;;18.30;70.00;;;;;;5054146;28;20037;-34
2022/10/18 12:40:57;;;;;;;4.15;1.05;;;18.30;69.80;;;;;;5054196;28;20040;-34
2022/10/18 12:43:32;;;;;;;2.35;1.10;;;18.40;69.80;;;;;;5053964;28;20350;-33
2022/10/18 12:46:01;;;;;;;3.75;0.90;;;18.40;69.50;;;;;;5053948;28;20075;-34
2022/10/18 12:48:30;;;;;;;4.85;0.80;;;18.50;68.80;;;;;;5053694;28;20033;-35
2022/10/18 12:51:14;;;;;;;3.53;0.95;;;18.50;68.90;;;;;;5053944;28;20112;-35
2022/10/18 12:53:41;;;;;;;;;;;18.60;69.00;;;;;;5054206;28;20032;-37
2022/10/18 12:56:29;;;;;;;2.92;0.90;;;18.60;68.10;;;;;;5053619;28;19921;-36
2022/10/18 12:59:13;;;;;;;3.03;0.90;;;18.60;68.10;;;;;;5053189;28;20033;-35